Time;durP1;ratioP1;P1;durP2;ratioP2;P2;SDS_P1;SDS_P2;PMS_P1;PMS_P2;Temp;Humidity;BMP_temperature;BMP_pressure;BME280_temperature;BME280_humidity;BME280_pressure;Samples;Min_cycle;Max_cycle;Signal;HPM_P1;HPM_P2
2023/08/05 00:01:10;;;;;;;10.27;5.75;;;21.80;84.80;;;;;;5080325;28;20059;-87
2023/08/05 00:03:36;;;;;;;9.45;6.35;;;21.80;85.10;;;;;;5057470;28;20031;-87
2023/08/05 00:06:02;;;;;;;8.10;6.30;;;21.80;85.20;;;;;;5080016;28;20493;-86
2023/08/05 00:08:28;;;;;;;12.27;6.82;;;21.80;85.20;;;;;;5062167;28;20474;-87
2023/08/05 00:10:54;;;;;;;7.28;6.15;;;21.80;85.10;;;;;;5065846;28;20051;-88
2023/08/05 00:13:20;;;;;;;12.57;6.40;;;21.80;85.30;;;;;;5057089;28;20025;-87
2023/08/05 00:15:46;;;;;;;9.20;6.47;;;21.80;85.60;;;;;;5068883;28;20155;-87
2023/08/05 00:18:11;;;;;;;10.02;5.85;;;21.80;85.40;;;;;;5089643;28;20021;-88
2023/08/05 00:20:37;;;;;;;8.90;6.32;;;21.80;85.90;;;;;;5075610;28;20051;-88
2023/08/05 00:23:03;;;;;;;10.00;5.63;;;21.80;85.90;;;;;;5080319;28;20082;-89
2023/08/05 00:25:30;;;;;;;13.52;6.65;;;21.70;86.10;;;;;;5067845;28;20025;-90
2023/08/05 00:27:56;;;;;;;11.43;6.38;;;21.70;86.20;;;;;;5067636;28;20031;-90
2023/08/05 00:30:22;;;;;;;14.73;6.72;;;21.70;86.50;;;;;;5068243;28;20029;-88
2023/08/05 00:32:48;;;;;;;14.32;7.18;;;21.60;87.30;;;;;;5074955;28;20021;-89
2023/08/05 00:35:14;;;;;;;9.07;6.50;;;21.60;87.00;;;;;;5070192;28;20055;-88
2023/08/05 00:37:40;;;;;;;12.48;6.88;;;21.60;87.10;;;;;;5095274;28;20016;-89
2023/08/05 00:40:06;;;;;;;14.10;6.75;;;21.60;87.40;;;;;;5099585;28;20032;-89
2023/08/05 00:42:32;;;;;;;12.13;6.20;;;21.60;87.60;;;;;;5073149;28;20100;-88
2023/08/05 00:44:58;;;;;;;18.50;7.43;;;21.50;87.80;;;;;;5091693;28;20021;-89
2023/08/05 00:47:25;;;;;;;20.67;7.35;;;21.50;88.00;;;;;;5038534;28;20049;-89
2023/08/05 00:49:52;;;;;;;12.98;6.25;;;21.50;88.10;;;;;;5064529;28;20025;-87
2023/08/05 00:52:21;;;;;;;13.95;6.10;;;21.40;88.20;;;;;;5074354;28;20049;-90
2023/08/05 00:54:48;;;;;;;9.10;6.53;;;21.40;88.40;;;;;;5077762;28;20025;-85
2023/08/05 00:57:17;;;;;;;13.32;6.05;;;21.40;88.40;;;;;;5078797;28;20021;-89
2023/08/05 00:59:43;;;;;;;14.70;6.32;;;21.40;88.40;;;;;;5056419;28;20025;-89
2023/08/05 01:02:09;;;;;;;12.65;6.18;;;21.40;88.30;;;;;;5055373;28;20387;-89
2023/08/05 01:04:35;;;;;;;11.65;6.65;;;21.50;88.50;;;;;;5080311;28;20017;-90
2023/08/05 01:07:03;;;;;;;17.55;7.00;;;21.50;88.70;;;;;;5050687;28;20025;-92
2023/08/05 01:09:29;;;;;;;11.38;5.93;;;21.40;89.00;;;;;;5064193;28;20482;-90
2023/08/05 01:11:55;;;;;;;11.57;6.90;;;21.40;89.30;;;;;;5070330;28;20099;-90
2023/08/05 01:14:21;;;;;;;10.60;7.05;;;21.30;89.30;;;;;;5050213;28;20577;-90
2023/08/05 01:16:49;;;;;;;12.18;6.70;;;21.30;89.50;;;;;;5050342;28;20084;-91
2023/08/05 01:19:26;;;;;;;13.80;7.38;;;21.30;89.90;;;;;;5022083;28;20037;-91
2023/08/05 01:22:13;;;;;;;19.42;7.50;;;21.30;90.00;;;;;;5036853;28;20033;-90
2023/08/05 01:24:58;;;;;;;15.60;7.82;;;21.30;90.00;;;;;;5036284;28;20052;-90
2023/08/05 01:27:25;;;;;;;16.63;7.68;;;21.20;90.20;;;;;;5025785;28;20121;-91
2023/08/05 01:29:52;;;;;;;14.48;8.38;;;21.20;90.20;;;;;;5023434;28;20447;-91
2023/08/05 01:32:19;;;;;;;14.25;7.75;;;21.10;90.40;;;;;;5001578;28;20035;-89
2023/08/05 01:34:47;;;;;;;18.35;7.70;;;21.10;90.50;;;;;;5017528;28;20038;-89
2023/08/05 01:37:13;;;;;;;13.00;8.07;;;21.10;90.50;;;;;;4991849;28;20042;-89
2023/08/05 01:39:38;;;;;;;13.57;6.95;;;21.10;90.60;;;;;;5006665;28;20089;-88
2023/08/05 01:42:05;;;;;;;11.95;8.48;;;21.10;90.60;;;;;;4988778;28;20038;-90
2023/08/05 01:44:31;;;;;;;17.73;8.48;;;21.10;90.70;;;;;;4982253;28;20030;-87
2023/08/05 01:46:56;;;;;;;9.98;7.40;;;21.10;90.70;;;;;;5011921;28;20117;-89
2023/08/05 01:49:22;;;;;;;13.50;7.95;;;21.10;90.70;;;;;;5014026;28;20041;-87
2023/08/05 01:51:48;;;;;;;11.55;8.32;;;21.10;90.80;;;;;;5013309;28;20034;-89
2023/08/05 01:54:16;;;;;;;13.55;8.70;;;21.00;90.90;;;;;;5004744;28;20424;-88
2023/08/05 01:56:41;;;;;;;11.23;7.93;;;21.10;90.80;;;;;;5014158;28;20093;-89
2023/08/05 01:59:07;;;;;;;14.55;8.10;;;21.10;90.90;;;;;;5027745;28;20026;-86
2023/08/05 02:01:46;;;;;;;18.77;8.88;;;21.10;90.80;;;;;;5002899;28;20097;-88
2023/08/05 02:04:13;;;;;;;10.73;8.43;;;21.10;90.50;;;;;;5006229;28;20404;-89
2023/08/05 02:06:39;;;;;;;13.20;8.10;;;21.10;90.90;;;;;;5015858;28;20388;-88
2023/08/05 02:09:05;;;;;;;15.38;8.02;;;21.20;90.80;;;;;;5039959;28;20037;-89
2023/08/05 02:11:31;;;;;;;16.80;8.57;;;21.20;90.80;;;;;;5079633;28;20064;-87
2023/08/05 02:13:57;;;;;;;9.75;7.97;;;21.20;90.80;;;;;;5056988;28;20047;-88
2023/08/05 02:16:23;;;;;;;12.00;8.25;;;21.30;90.80;;;;;;5067315;28;20021;-89
2023/08/05 02:18:51;;;;;;;13.02;8.57;;;21.30;90.80;;;;;;5075652;28;20047;-87
2023/08/05 02:21:17;;;;;;;15.73;9.45;;;21.30;90.80;;;;;;5057502;28;20043;-87
2023/08/05 02:23:43;;;;;;;12.50;7.97;;;21.40;90.90;;;;;;5066130;28;20028;-88
2023/08/05 02:26:09;;;;;;;13.98;7.43;;;21.40;90.90;;;;;;5044176;28;20020;-88
2023/08/05 02:28:37;;;;;;;13.32;8.68;;;21.40;90.90;;;;;;5062179;28;20409;-88
2023/08/05 02:31:03;;;;;;;11.52;7.72;;;21.40;90.70;;;;;;5063561;28;20021;-88
2023/08/05 02:33:29;;;;;;;13.55;8.20;;;21.50;90.70;;;;;;5053995;28;20048;-86
2023/08/05 02:35:59;;;;;;;14.88;9.05;;;21.60;90.50;;;;;;5090045;28;20020;-87
2023/08/05 02:38:25;;;;;;;9.82;8.48;;;21.60;90.40;;;;;;5062353;28;20021;-86
2023/08/05 02:40:51;;;;;;;17.55;8.57;;;21.70;90.60;;;;;;5062646;28;20043;-87
2023/08/05 02:43:17;;;;;;;22.10;8.90;;;21.70;90.60;;;;;;5060538;28;20025;-87
2023/08/05 02:45:43;;;;;;;15.32;9.32;;;21.80;90.40;;;;;;5060110;28;20025;-87
2023/08/05 02:48:10;;;;;;;17.00;8.43;;;21.80;90.40;;;;;;5063571;28;20484;-88
2023/08/05 02:50:35;;;;;;;13.18;7.78;;;21.90;90.40;;;;;;5074920;28;20044;-87
2023/08/05 02:53:01;;;;;;;22.95;9.98;;;22.00;90.20;;;;;;5054663;28;20035;-87
2023/08/05 02:55:28;;;;;;;23.70;9.32;;;22.10;90.20;;;;;;5073106;28;20017;-86
2023/08/05 02:57:53;;;;;;;10.18;6.78;;;22.20;89.90;;;;;;5044872;28;20107;-87
2023/08/05 03:00:19;;;;;;;16.95;8.10;;;22.30;89.50;;;;;;5071585;28;20459;-85
2023/08/05 03:02:46;;;;;;;11.90;7.57;;;22.30;88.90;;;;;;5059643;28;20061;-86
2023/08/05 03:05:11;;;;;;;11.82;7.68;;;22.40;88.40;;;;;;5057884;28;20024;-87
2023/08/05 03:07:39;;;;;;;11.80;7.47;;;22.40;88.10;;;;;;5055913;28;20120;-88
2023/08/05 03:10:05;;;;;;;12.73;6.97;;;22.50;87.80;;;;;;5051883;28;20057;-88
2023/08/05 03:12:31;;;;;;;10.07;7.07;;;22.60;87.20;;;;;;5064957;28;20036;-87
2023/08/05 03:14:57;;;;;;;13.02;7.00;;;22.60;86.80;;;;;;5069109;28;20040;-88
2023/08/05 03:17:23;;;;;;;11.05;7.28;;;22.70;86.80;;;;;;5048460;28;20023;-87
2023/08/05 03:19:55;;;;;;;9.70;6.93;;;22.80;86.60;;;;;;5058458;28;20478;-88
2023/08/05 03:22:20;;;;;;;11.75;7.15;;;22.90;86.20;;;;;;5065617;28;20033;-85
2023/08/05 03:24:46;;;;;;;10.45;7.72;;;22.90;86.10;;;;;;5057231;28;20069;-87
2023/08/05 03:27:12;;;;;;;10.93;7.10;;;22.90;86.10;;;;;;5068057;28;20505;-86
2023/08/05 03:29:38;;;;;;;11.85;7.72;;;23.00;85.70;;;;;;5060890;28;20474;-86
2023/08/05 03:32:04;;;;;;;13.82;7.05;;;23.10;85.30;;;;;;5078436;28;20025;-88
2023/08/05 03:34:30;;;;;;;11.77;7.65;;;23.10;85.10;;;;;;5064326;28;20470;-85
2023/08/05 03:36:56;;;;;;;14.48;7.10;;;23.20;85.00;;;;;;5067082;28;20116;-87
2023/08/05 03:39:22;;;;;;;10.45;6.65;;;23.20;84.80;;;;;;5084307;28;20025;-86
2023/08/05 03:41:48;;;;;;;8.57;6.65;;;23.30;84.50;;;;;;5066100;28;20130;-87
2023/08/05 03:44:14;;;;;;;10.25;6.88;;;23.40;84.40;;;;;;5078502;28;20029;-86
2023/08/05 03:46:40;;;;;;;9.02;6.88;;;23.50;84.30;;;;;;5078915;28;20335;-86
2023/08/05 03:49:06;;;;;;;10.50;6.95;;;23.50;83.90;;;;;;5073328;28;20017;-87
2023/08/05 03:51:32;;;;;;;15.23;7.38;;;23.60;83.70;;;;;;5073043;28;20032;-87
2023/08/05 03:53:58;;;;;;;10.40;7.72;;;23.70;83.80;;;;;;5056088;28;20033;-88
2023/08/05 03:56:26;;;;;;;12.98;7.00;;;23.70;83.50;;;;;;5076558;28;20027;-86
2023/08/05 03:58:56;;;;;;;14.85;7.55;;;23.80;83.30;;;;;;5059118;28;20028;-88
2023/08/05 04:01:23;;;;;;;16.63;7.85;;;23.90;83.00;;;;;;5063731;28;20126;-86
2023/08/05 04:03:49;;;;;;;12.43;7.77;;;24.00;82.90;;;;;;5041551;28;20020;-85
2023/08/05 04:06:16;;;;;;;11.40;6.97;;;24.00;82.60;;;;;;5076149;28;20074;-84
2023/08/05 04:08:43;;;;;;;13.73;7.07;;;24.00;82.50;;;;;;5068477;28;20025;-85
2023/08/05 04:11:09;;;;;;;12.82;7.60;;;24.00;82.50;;;;;;5075101;28;20078;-85
2023/08/05 04:13:38;;;;;;;12.23;8.35;;;24.00;82.70;;;;;;5076492;28;20048;-86
2023/08/05 04:16:04;;;;;;;12.15;7.60;;;24.10;82.60;;;;;;5063160;28;20088;-87
2023/08/05 04:18:37;;;;;;;10.57;7.22;;;24.10;82.50;;;;;;5079631;28;20024;-84
2023/08/05 04:21:04;;;;;;;8.95;7.35;;;24.30;82.10;;;;;;5063261;28;20044;-86
2023/08/05 04:23:33;;;;;;;9.23;6.70;;;24.30;81.50;;;;;;5059003;28;20030;-85
2023/08/05 04:26:03;;;;;;;12.75;7.15;;;24.30;81.30;;;;;;5081449;28;20032;-85
2023/08/05 04:28:29;;;;;;;10.82;7.05;;;24.40;81.90;;;;;;5075147;28;20024;-84
2023/08/05 04:30:57;;;;;;;8.13;6.43;;;24.40;81.30;;;;;;5078153;28;20029;-84
2023/08/05 04:33:25;;;;;;;15.35;7.15;;;24.40;81.20;;;;;;5083751;28;20033;-83
2023/08/05 04:35:51;;;;;;;13.27;6.80;;;24.50;81.40;;;;;;5082699;28;20028;-83
2023/08/05 04:38:17;;;;;;;9.77;6.47;;;24.60;80.80;;;;;;5067845;28;20025;-84
2023/08/05 04:40:43;;;;;;;13.77;7.05;;;24.70;80.70;;;;;;5071404;28;20024;-84
2023/08/05 04:43:10;;;;;;;10.02;5.45;;;24.80;80.10;;;;;;5046123;28;20118;-85
2023/08/05 04:45:36;;;;;;;9.82;5.47;;;24.90;80.30;;;;;;5064178;28;20025;-86
2023/08/05 04:48:04;;;;;;;10.00;5.85;;;24.90;79.60;;;;;;5061308;28;20131;-86
2023/08/05 04:50:30;;;;;;;10.65;6.38;;;25.00;79.60;;;;;;5058317;28;20021;-85
2023/08/05 04:52:56;;;;;;;9.05;5.75;;;25.00;79.80;;;;;;5082121;28;20029;-85
2023/08/05 04:55:22;;;;;;;6.90;5.30;;;25.10;79.60;;;;;;5092311;28;20050;-82
2023/08/05 04:57:52;;;;;;;9.98;5.13;;;25.20;77.40;;;;;;5071016;28;20029;-84
2023/08/05 05:00:19;;;;;;;9.32;5.05;;;25.70;77.20;;;;;;5064287;28;20024;-84
2023/08/05 05:02:45;;;;;;;7.20;4.17;;;26.40;75.60;;;;;;5053444;28;20052;-87
2023/08/05 05:05:11;;;;;;;4.90;3.47;;;27.40;72.70;;;;;;5075242;28;20101;-88
2023/08/05 05:07:36;;;;;;;4.93;3.65;;;28.30;68.50;;;;;;5076064;28;20055;-88
2023/08/05 05:10:02;;;;;;;7.43;3.58;;;29.20;65.50;;;;;;5074033;28;20036;-88
2023/08/05 05:12:28;;;;;;;7.82;3.72;;;30.00;63.70;;;;;;5072008;28;20043;-87
2023/08/05 05:14:54;;;;;;;3.43;2.77;;;30.80;62.00;;;;;;5079665;28;20028;-87
2023/08/05 05:17:21;;;;;;;6.00;2.85;;;;;;;;;;5077418;28;20046;-87
2023/08/05 05:19:47;;;;;;;3.83;2.75;;;32.20;56.70;;;;;;5078545;28;20099;-87
2023/08/05 05:22:17;;;;;;;4.68;2.55;;;32.90;55.70;;;;;;5059047;28;20039;-86
2023/08/05 05:24:48;;;;;;;6.22;3.28;;;33.60;53.20;;;;;;5057938;28;20114;-86
2023/08/05 05:27:15;;;;;;;4.32;2.95;;;33.90;52.40;;;;;;5070742;28;20016;-85
2023/08/05 05:29:41;;;;;;;3.80;2.83;;;34.50;51.10;;;;;;5067997;28;20032;-85
2023/08/05 05:32:07;;;;;;;6.43;2.90;;;34.80;50.70;;;;;;5056467;28;20124;-86
2023/08/05 05:34:33;;;;;;;5.25;3.78;;;35.20;49.00;;;;;;5054731;28;20033;-84
2023/08/05 05:36:59;;;;;;;9.35;3.67;;;35.50;49.60;;;;;;5075953;28;20046;-87
2023/08/05 05:39:25;;;;;;;6.00;2.33;;;35.50;47.60;;;;;;5075763;28;20016;-85
2023/08/05 05:41:51;;;;;;;7.13;3.27;;;35.40;47.80;;;;;;5075237;28;20029;-86
2023/08/05 05:44:17;;;;;;;6.57;3.03;;;35.40;48.00;;;;;;5074110;28;20284;-85
2023/08/05 05:46:44;;;;;;;7.77;2.77;;;36.00;47.90;;;;;;5072501;28;20033;-86
2023/08/05 05:49:10;;;;;;;5.03;2.45;;;;;;;;;;5074886;28;20027;-83
2023/08/05 05:51:36;;;;;;;3.97;2.00;;;36.60;46.60;;;;;;5075278;28;20051;-85
2023/08/05 05:54:02;;;;;;;3.60;2.03;;;37.80;43.90;;;;;;5058065;28;20024;-83
2023/08/05 05:56:28;;;;;;;7.03;2.20;;;37.70;43.10;;;;;;5064031;28;20024;-84
2023/08/05 05:58:54;;;;;;;5.38;2.35;;;37.70;43.80;;;;;;5055665;28;20041;-84
2023/08/05 06:01:23;;;;;;;4.45;1.90;;;;;;;;;;5046281;28;20028;-85
2023/08/05 06:03:50;;;;;;;5.15;1.83;;;38.30;43.40;;;;;;5062029;28;20025;-83
2023/08/05 06:06:15;;;;;;;4.68;1.98;;;39.90;41.40;;;;;;5059011;28;20029;-84
2023/08/05 06:08:42;;;;;;;19.77;4.20;;;;;;;;;;5062828;28;20033;-84
2023/08/05 06:11:08;;;;;;;;;;;;;;;;;;5077058;28;20069;-83
2023/08/05 06:13:35;;;;;;;19.98;4.28;;;40.70;40.50;;;;;;5080334;28;19927;-84
2023/08/05 06:16:01;;;;;;;5.72;2.00;;;42.10;38.60;;;;;;5072698;28;20029;-86
2023/08/05 06:18:27;;;;;;;9.82;2.03;;;42.20;38.00;;;;;;5072935;28;20120;-84
2023/08/05 06:20:53;;;;;;;3.85;1.80;;;;;;;;;;5071519;28;20028;-83
2023/08/05 06:23:19;;;;;;;;;;;42.60;37.50;;;;;;5063732;28;20039;-84
2023/08/05 06:25:46;;;;;;;7.55;1.73;;;43.10;38.30;;;;;;5075399;28;19936;-85
2023/08/05 06:28:12;;;;;;;5.10;1.65;;;42.80;36.30;;;;;;5092363;28;20071;-86
2023/08/05 06:30:44;;;;;;;;;;;43.10;36.10;;;;;;5049221;28;20099;-85
2023/08/05 06:33:10;;;;;;;8.80;1.98;;;43.70;37.60;;;;;;5052178;28;19916;-84
2023/08/05 06:35:36;;;;;;;4.43;2.50;;;43.90;35.30;;;;;;5056794;28;20067;-85
2023/08/05 06:38:02;;;;;;;;;;;43.80;35.20;;;;;;5073498;28;20502;-84
2023/08/05 06:40:28;;;;;;;3.90;2.10;;;43.80;37.00;;;;;;5042856;28;20373;-84
2023/08/05 06:42:53;;;;;;;;;;;43.50;35.10;;;;;;5072944;28;20486;-84
2023/08/05 06:45:19;;;;;;;3.10;1.63;;;43.10;36.40;;;;;;5064815;28;19967;-85
2023/08/05 06:47:45;;;;;;;;;;;43.20;35.50;;;;;;5071816;28;20024;-85
2023/08/05 06:50:11;;;;;;;3.22;1.88;;;43.80;36.70;;;;;;5077701;28;19912;-86
2023/08/05 06:52:37;;;;;;;4.20;1.70;;;44.10;34.80;;;;;;5078665;28;20021;-84
2023/08/05 06:55:04;;;;;;;3.45;1.73;;;44.10;34.10;;;;;;5063088;28;20029;-85
2023/08/05 06:57:32;;;;;;;5.53;1.77;;;43.80;34.20;;;;;;5070701;28;20081;-85
2023/08/05 06:59:58;;;;;;;4.45;2.00;;;43.10;34.80;;;;;;5086484;28;20378;-85
2023/08/05 07:02:25;;;;;;;5.50;1.90;;;42.90;35.20;;;;;;5076474;28;20036;-86
2023/08/05 07:04:52;;;;;;;6.20;2.22;;;43.00;35.30;;;;;;5058825;28;20412;-85
2023/08/05 07:07:18;;;;;;;7.07;2.00;;;43.40;35.10;;;;;;5075135;28;20092;-85
2023/08/05 07:09:44;;;;;;;4.63;1.83;;;43.20;35.00;;;;;;5056247;28;20350;-84
2023/08/05 07:12:10;;;;;;;;;;;42.70;35.20;;;;;;5042540;28;20032;-85
2023/08/05 07:14:36;;;;;;;4.88;1.83;;;42.90;36.40;;;;;;5065391;28;19905;-86
2023/08/05 07:17:02;;;;;;;;;;;43.40;35.20;;;;;;5050649;28;20132;-85
2023/08/05 07:19:27;;;;;;;3.90;1.90;;;43.60;35.80;;;;;;5054934;28;20004;-86
2023/08/05 07:21:53;;;;;;;;;;;44.10;34.70;;;;;;5068425;28;20037;-85
2023/08/05 07:24:19;;;;;;;5.45;2.10;;;43.90;35.10;;;;;;5055349;28;20039;-86
2023/08/05 07:26:48;;;;;;;;;;;42.80;34.60;;;;;;5057630;28;20025;-86
2023/08/05 07:29:14;;;;;;;3.63;2.33;;;41.90;35.90;;;;;;5060538;28;20358;-84
2023/08/05 07:31:40;;;;;;;;;;;41.80;36.50;;;;;;5066975;28;20032;-87
2023/08/05 07:34:05;;;;;;;3.28;1.83;;;42.80;36.80;;;;;;5050401;28;19905;-85
2023/08/05 07:36:31;;;;;;;;;;;43.50;35.20;;;;;;5042730;28;20021;-87
2023/08/05 07:39:00;;;;;;;2.92;1.60;;;44.10;35.70;;;;;;5078687;28;19908;-85
2023/08/05 07:41:26;;;;;;;4.32;2.40;;;44.90;34.10;;;;;;5059198;28;20058;-86
2023/08/05 07:43:57;;;;;;;5.47;1.85;;;45.90;33.80;;;;;;5059125;28;20033;-85
2023/08/05 07:46:25;;;;;;;6.90;1.83;;;46.80;33.00;;;;;;5050526;28;20024;-85
2023/08/05 07:48:58;;;;;;;6.43;2.30;;;47.50;32.30;;;;;;5060358;28;20035;-87
2023/08/05 07:51:24;;;;;;;6.63;3.00;;;46.90;32.30;;;;;;5080829;28;20017;-84
2023/08/05 07:53:52;;;;;;;5.07;2.17;;;46.40;32.60;;;;;;5082201;28;20036;-85
2023/08/05 07:56:18;;;;;;;5.47;2.55;;;46.50;32.40;;;;;;5084711;28;20392;-85
2023/08/05 07:58:47;;;;;;;6.15;2.15;;;45.60;32.40;;;;;;5061220;28;20033;-86
2023/08/05 08:01:17;;;;;;;11.05;2.90;;;43.80;34.00;;;;;;5062652;28;20035;-83
2023/08/05 08:03:43;;;;;;;16.20;3.70;;;;;;;;;;5054327;28;20029;-86
2023/08/05 08:06:10;;;;;;;8.77;3.50;;;41.70;36.80;;;;;;5092373;28;20021;-85
2023/08/05 08:08:36;;;;;;;4.57;2.45;;;42.20;36.30;;;;;;5081699;28;20108;-84
2023/08/05 08:11:01;;;;;;;;;;;42.60;34.90;;;;;;5080780;28;20072;-85
2023/08/05 08:13:27;;;;;;;;;;;41.40;35.20;;;;;;5065599;28;19904;-85
2023/08/05 08:15:53;;;;;;;5.07;2.30;;;39.20;36.40;;;;;;5059174;28;19908;-85
2023/08/05 08:18:19;;;;;;;8.40;2.63;;;37.80;39.30;;;;;;5080234;28;20546;-86
2023/08/05 08:20:52;;;;;;;5.22;2.60;;;37.00;40.00;;;;;;5083653;28;20072;-84
2023/08/05 08:23:18;;;;;;;10.77;3.78;;;36.50;41.50;;;;;;5068614;28;20059;-84
2023/08/05 08:25:44;;;;;;;5.40;2.70;;;37.40;41.40;;;;;;5061919;28;20464;-86
2023/08/05 08:28:10;;;;;;;5.70;3.30;;;38.80;39.60;;;;;;5058778;28;20437;-85
2023/08/05 08:30:36;;;;;;;14.13;3.78;;;38.30;39.40;;;;;;5069474;28;20021;-83
2023/08/05 08:33:02;;;;;;;6.07;4.18;;;39.40;39.60;;;;;;5076117;28;20041;-86
2023/08/05 08:35:28;;;;;;;3.72;2.30;;;40.60;38.00;;;;;;5072740;28;20489;-90
2023/08/05 08:37:57;;;;;;;7.50;2.15;;;40.10;37.20;;;;;;5064648;28;20049;-87
2023/08/05 08:40:23;;;;;;;5.43;2.13;;;38.80;37.90;;;;;;5051560;28;20071;-84
2023/08/05 08:42:51;;;;;;;5.47;2.63;;;37.30;39.60;;;;;;5060084;28;20445;-85
2023/08/05 08:45:21;;;;;;;5.65;3.00;;;36.50;41.70;;;;;;5051672;28;20498;-88
2023/08/05 08:47:49;;;;;;;8.90;3.67;;;37.00;41.80;;;;;;5049912;28;20028;-91
2023/08/05 08:50:16;;;;;;;5.25;3.17;;;38.90;40.10;;;;;;5061361;28;20544;-92
2023/08/05 08:52:45;;;;;;;3.40;2.20;;;40.60;37.70;;;;;;5082599;28;20040;-91
2023/08/05 08:55:15;;;;;;;6.18;2.65;;;40.00;37.00;;;;;;5075469;28;20028;-93
2023/08/05 08:57:41;;;;;;;7.13;2.67;;;39.10;39.00;;;;;;5045676;28;20029;-83
2023/08/05 09:00:07;;;;;;;14.75;3.55;;;38.60;38.30;;;;;;5054141;28;20497;-83
2023/08/05 09:02:35;;;;;;;7.80;2.92;;;37.80;39.80;;;;;;5065044;28;20430;-84
2023/08/05 09:05:02;;;;;;;4.63;2.58;;;38.70;40.00;;;;;;5089351;28;20036;-82
2023/08/05 09:07:28;;;;;;;5.47;2.38;;;40.30;37.70;;;;;;5080127;28;20031;-85
2023/08/05 09:09:57;;;;;;;4.80;2.50;;;41.40;37.20;;;;;;5085603;28;20048;-82
2023/08/05 09:12:23;;;;;;;7.63;2.78;;;41.70;35.80;;;;;;5076134;28;20389;-83
2023/08/05 09:14:53;;;;;;;7.75;2.65;;;40.20;36.30;;;;;;5071094;28;20095;-82
2023/08/05 09:17:19;;;;;;;9.00;3.13;;;38.40;38.50;;;;;;5054632;28;20406;-86
2023/08/05 09:19:45;;;;;;;5.65;2.55;;;36.90;40.30;;;;;;5082116;28;20020;-87
2023/08/05 09:22:11;;;;;;;4.28;3.03;;;36.10;40.70;;;;;;5064210;28;20498;-86
2023/08/05 09:24:36;;;;;;;5.25;4.03;;;36.40;41.90;;;;;;5074932;28;20092;-85
2023/08/05 09:27:02;;;;;;;13.85;5.70;;;37.90;40.10;;;;;;5079786;28;20052;-85
2023/08/05 09:29:28;;;;;;;12.35;3.20;;;41.50;37.50;;;;;;5060845;28;20032;-87
2023/08/05 09:31:57;;;;;;;;;;;41.60;37.10;;;;;;5074949;28;20044;-90
2023/08/05 09:34:37;;;;;;;13.32;3.25;;;43.80;35.50;;;;;;5069506;28;19905;-89
2023/08/05 09:37:04;;;;;;;7.63;2.60;;;44.00;34.90;;;;;;5080524;28;20085;-86
2023/08/05 09:39:48;;;;;;;4.28;2.10;;;45.20;34.00;;;;;;5071993;28;20025;-87
2023/08/05 09:42:24;;;;;;;5.10;2.22;;;46.30;33.10;;;;;;5072921;28;20185;-88
2023/08/05 09:44:57;;;;;;;4.55;2.10;;;46.50;32.30;;;;;;5048158;28;20036;-91
2023/08/05 09:47:30;;;;;;;5.47;1.98;;;46.70;31.30;;;;;;5073764;28;20017;-89
2023/08/05 09:49:59;;;;;;;9.50;3.83;;;46.80;31.40;;;;;;5059821;28;20052;-90
2023/08/05 09:52:28;;;;;;;5.65;2.55;;;46.40;31.80;;;;;;5043252;28;20032;-89
2023/08/05 09:54:54;;;;;;;7.70;2.20;;;44.60;32.90;;;;;;5069983;28;20085;-87
2023/08/05 09:57:20;;;;;;;6.63;2.38;;;42.40;33.80;;;;;;5058793;28;20056;-88
2023/08/05 09:59:47;;;;;;;6.00;2.72;;;40.50;35.80;;;;;;5063422;28;20029;-87
2023/08/05 10:02:22;;;;;;;7.22;2.42;;;40.40;37.60;;;;;;5080883;28;20025;-89
2023/08/05 10:04:51;;;;;;;4.55;2.08;;;41.70;36.30;;;;;;5066629;28;20104;-87
2023/08/05 10:07:18;;;;;;;3.50;2.35;;;42.90;34.30;;;;;;5084960;28;20021;-89
2023/08/05 10:09:45;;;;;;;7.35;2.78;;;43.30;34.40;;;;;;5057987;28;20041;-88
2023/08/05 10:12:11;;;;;;;7.20;2.72;;;;;;;;;;5060773;28;20062;-88
2023/08/05 10:14:37;;;;;;;;;;;40.10;35.30;;;;;;5081978;28;20009;-85
2023/08/05 10:17:04;;;;;;;5.70;2.63;;;38.90;37.00;;;;;;5089479;28;19958;-84
2023/08/05 10:19:33;;;;;;;3.50;2.35;;;39.10;38.70;;;;;;5059473;28;20027;-85
2023/08/05 10:22:09;;;;;;;4.80;2.72;;;39.80;37.50;;;;;;5081284;28;20028;-85
2023/08/05 10:24:51;;;;;;;8.90;4.90;;;;;;;;;;5078589;28;20028;-86
2023/08/05 10:27:17;;;;;;;5.78;2.80;;;38.60;37.40;;;;;;5078015;28;20020;-85
2023/08/05 10:29:53;;;;;;;11.45;3.63;;;37.70;39.00;;;;;;5075260;28;20020;-88
2023/08/05 10:32:33;;;;;;;5.23;2.13;;;37.30;38.60;;;;;;5053593;28;20044;-91
2023/08/05 10:35:18;;;;;;;5.25;3.00;;;;;;;;;;5057088;28;20372;-91
2023/08/05 10:38:06;;;;;;;6.15;3.53;;;35.50;40.30;;;;;;5079980;28;20029;-93
2023/08/05 10:40:51;;;;;;;9.45;3.05;;;35.20;42.00;;;;;;5067181;28;20182;-92
2023/08/05 10:43:40;;;;;;;4.50;2.50;;;34.30;41.50;;;;;;5058324;28;20039;-90
2023/08/05 10:46:12;;;;;;;5.53;3.30;;;;;;;;;;5024057;28;20049;-89
2023/08/05 10:48:48;;;;;;;11.10;4.32;;;33.40;43.60;;;;;;5036377;28;20029;-89
2023/08/05 10:51:17;;;;;;;6.68;2.95;;;;;;;;;;5019936;28;20560;-87
2023/08/05 10:53:58;;;;;;;5.43;2.95;;;33.00;45.20;;;;;;5011356;28;20026;-88
2023/08/05 10:56:34;;;;;;;4.65;3.10;;;32.60;46.90;;;;;;5040936;28;20119;-90
2023/08/05 10:59:01;;;;;;;4.47;2.72;;;32.20;46.70;;;;;;5028258;28;20083;-87
2023/08/05 11:01:52;;;;;;;9.95;3.03;;;32.10;47.20;;;;;;5053491;28;20037;-86
2023/08/05 11:04:31;;;;;;;6.75;3.20;;;;;;;;;;5039407;28;20060;-88
2023/08/05 11:07:00;;;;;;;6.88;3.67;;;31.90;46.50;;;;;;5039516;28;20075;-86
2023/08/05 11:09:32;;;;;;;5.82;3.60;;;31.60;47.10;;;;;;5039434;28;20025;-86
2023/08/05 11:12:07;;;;;;;5.95;2.83;;;31.60;48.00;;;;;;5031490;28;20124;-94
2023/08/05 11:14:34;;;;;;;;;;;31.50;47.90;;;;;;5006183;28;20032;-90
2023/08/05 11:17:07;;;;;;;7.53;4.40;;;31.50;47.30;;;;;;5035503;28;19955;-85
2023/08/05 11:19:55;;;;;;;9.10;3.60;;;31.50;48.20;;;;;;5066760;28;20323;-88
2023/08/05 11:22:28;;;;;;;7.82;3.60;;;31.50;48.00;;;;;;5054912;28;20517;-89
2023/08/05 11:25:01;;;;;;;4.40;2.95;;;31.60;48.30;;;;;;5068008;28;20102;-90
2023/08/05 11:27:34;;;;;;;6.03;3.00;;;31.70;48.50;;;;;;5047720;28;20402;-87
2023/08/05 11:30:38;;;;;;;6.07;3.00;;;31.80;48.00;;;;;;5071178;28;20056;-90
2023/08/05 11:33:05;;;;;;;5.20;3.33;;;31.90;47.70;;;;;;4948981;29;20042;-84
2023/08/05 11:35:31;;;;;;;5.00;3.10;;;31.80;48.20;;;;;;4964349;29;20094;-85
2023/08/05 11:37:57;;;;;;;5.90;2.85;;;31.70;48.30;;;;;;4964459;29;20050;-85
2023/08/05 11:40:24;;;;;;;12.00;3.75;;;31.60;48.40;;;;;;4940956;29;20442;-85
2023/08/05 11:42:52;;;;;;;8.27;3.33;;;31.50;48.90;;;;;;4957282;28;20054;-83
2023/08/05 11:45:18;;;;;;;7.15;3.33;;;31.30;48.50;;;;;;4959718;28;20517;-85
2023/08/05 11:47:45;;;;;;;6.38;3.28;;;31.30;48.80;;;;;;4961816;28;20389;-86
2023/08/05 11:50:12;;;;;;;5.63;3.80;;;31.20;49.50;;;;;;4938687;29;20456;-86
2023/08/05 11:52:39;;;;;;;10.25;3.72;;;31.20;49.40;;;;;;4942693;28;20082;-88
2023/08/05 11:55:07;;;;;;;7.53;4.40;;;31.10;49.40;;;;;;4929041;29;20040;-84
2023/08/05 11:57:33;;;;;;;6.75;3.25;;;31.10;50.20;;;;;;4959261;29;20034;-85
2023/08/05 12:00:08;;;;;;;7.55;2.92;;;31.00;49.20;;;;;;4940149;29;20063;-83
2023/08/05 12:02:35;;;;;;;5.07;3.28;;;31.00;49.20;;;;;;4960497;29;20123;-85
2023/08/05 12:05:01;;;;;;;8.52;4.00;;;30.90;49.20;;;;;;4964300;29;20031;-87
2023/08/05 12:07:28;;;;;;;10.43;3.20;;;30.80;49.60;;;;;;4944444;28;20552;-88
2023/08/05 12:10:05;;;;;;;6.68;3.13;;;30.70;49.60;;;;;;5047849;28;20045;-86
2023/08/05 12:12:31;;;;;;;4.85;2.95;;;30.60;49.70;;;;;;5068888;28;20016;-86
2023/08/05 12:15:21;;;;;;;7.55;3.20;;;30.50;49.50;;;;;;5090748;28;20029;-87
2023/08/05 12:17:48;;;;;;;4.05;2.80;;;30.40;49.40;;;;;;5065183;28;20032;-87
2023/08/05 12:20:23;;;;;;;5.30;2.97;;;30.40;49.50;;;;;;5075010;28;20492;-86
2023/08/05 12:22:50;;;;;;;10.27;4.20;;;30.30;49.90;;;;;;5055953;28;20048;-84
2023/08/05 12:25:16;;;;;;;;;;;30.30;50.10;;;;;;5062901;28;20039;-86
2023/08/05 12:27:42;;;;;;;13.38;3.80;;;30.30;49.80;;;;;;5064117;28;19916;-83
2023/08/05 12:30:09;;;;;;;5.30;3.05;;;30.20;50.70;;;;;;5057359;28;20033;-86
2023/08/05 12:32:35;;;;;;;5.93;3.08;;;30.20;50.20;;;;;;5059460;28;20033;-85
2023/08/05 12:35:05;;;;;;;3.75;3.00;;;30.20;50.50;;;;;;5056424;28;20109;-84
2023/08/05 12:37:36;;;;;;;3.67;2.70;;;30.10;51.10;;;;;;5064348;28;20027;-84
2023/08/05 12:40:03;;;;;;;8.32;3.05;;;30.10;51.10;;;;;;5046058;28;20017;-84
2023/08/05 12:42:30;;;;;;;6.55;4.07;;;30.10;50.70;;;;;;5058485;28;20078;-84
2023/08/05 12:44:56;;;;;;;7.53;3.58;;;30.10;50.90;;;;;;5067127;28;20059;-83
2023/08/05 12:47:24;;;;;;;6.97;3.55;;;30.10;50.80;;;;;;5080860;28;20029;-85
2023/08/05 12:49:50;;;;;;;4.43;2.58;;;30.20;51.10;;;;;;5076379;28;20032;-83
2023/08/05 12:52:15;;;;;;;5.03;2.78;;;30.20;50.30;;;;;;5076411;28;20031;-84
2023/08/05 12:54:41;;;;;;;6.70;3.20;;;30.30;50.80;;;;;;5089080;28;20033;-85
2023/08/05 12:57:07;;;;;;;5.25;2.92;;;30.40;51.00;;;;;;5075052;28;20024;-84